sensor_id;sensor_type;location;lat;lon;timestamp;P1;durP1;ratioP1;P2;durP2;ratioP2
35114;SDS011;21292;52.416;13.046;2023-05-02T00:00:06;12.90;;;6.75;;
35114;SDS011;21292;52.416;13.046;2023-05-02T00:02:38;11.00;;;5.65;;
35114;SDS011;21292;52.416;13.046;2023-05-02T00:05:06;9.77;;;6.63;;
35114;SDS011;21292;52.416;13.046;2023-05-02T00:07:35;10.35;;;6.25;;
35114;SDS011;21292;52.416;13.046;2023-05-02T00:10:04;14.63;;;6.10;;
35114;SDS011;21292;52.416;13.046;2023-05-02T00:12:33;13.13;;;6.32;;
35114;SDS011;21292;52.416;13.046;2023-05-02T00:15:03;9.40;;;6.28;;
35114;SDS011;21292;52.416;13.046;2023-05-02T00:17:32;10.30;;;5.78;;
35114;SDS011;21292;52.416;13.046;2023-05-02T00:20:03;9.90;;;5.80;;
35114;SDS011;21292;52.416;13.046;2023-05-02T00:22:35;8.18;;;6.22;;
35114;SDS011;21292;52.416;13.046;2023-05-02T00:25:04;12.90;;;6.63;;
35114;SDS011;21292;52.416;13.046;2023-05-02T00:27:34;9.02;;;6.38;;
35114;SDS011;21292;52.416;13.046;2023-05-02T00:30:03;9.07;;;6.30;;
35114;SDS011;21292;52.416;13.046;2023-05-02T00:32:32;10.00;;;6.75;;
35114;SDS011;21292;52.416;13.046;2023-05-02T00:35:00;11.05;;;6.43;;
35114;SDS011;21292;52.416;13.046;2023-05-02T00:37:30;12.07;;;6.15;;
35114;SDS011;21292;52.416;13.046;2023-05-02T00:40:00;8.90;;;6.28;;
35114;SDS011;21292;52.416;13.046;2023-05-02T00:42:28;8.45;;;6.45;;
35114;SDS011;21292;52.416;13.046;2023-05-02T00:45:00;9.83;;;6.30;;
35114;SDS011;21292;52.416;13.046;2023-05-02T00:47:30;10.80;;;6.45;;
35114;SDS011;21292;52.416;13.046;2023-05-02T00:49:58;11.50;;;5.50;;
35114;SDS011;21292;52.416;13.046;2023-05-02T00:52:28;11.05;;;6.40;;
35114;SDS011;21292;52.416;13.046;2023-05-02T00:54:57;10.77;;;5.95;;
35114;SDS011;21292;52.416;13.046;2023-05-02T00:57:26;9.20;;;5.95;;
35114;SDS011;21292;52.416;13.046;2023-05-02T00:59:55;8.43;;;6.13;;
35114;SDS011;21292;52.416;13.046;2023-05-02T01:02:29;7.72;;;6.22;;
35114;SDS011;21292;52.416;13.046;2023-05-02T01:05:04;11.00;;;6.78;;
35114;SDS011;21292;52.416;13.046;2023-05-02T01:07:42;8.93;;;6.38;;
35114;SDS011;21292;52.416;13.046;2023-05-02T01:10:22;9.48;;;6.50;;
35114;SDS011;21292;52.416;13.046;2023-05-02T01:12:58;11.45;;;5.88;;
35114;SDS011;21292;52.416;13.046;2023-05-02T01:15:29;11.25;;;6.05;;
35114;SDS011;21292;52.416;13.046;2023-05-02T01:18:00;11.98;;;6.07;;
35114;SDS011;21292;52.416;13.046;2023-05-02T01:20:32;9.43;;;5.93;;
35114;SDS011;21292;52.416;13.046;2023-05-02T01:23:05;11.57;;;5.68;;
35114;SDS011;21292;52.416;13.046;2023-05-02T01:25:46;10.80;;;6.70;;
35114;SDS011;21292;52.416;13.046;2023-05-02T01:28:28;9.38;;;5.78;;
35114;SDS011;21292;52.416;13.046;2023-05-02T01:31:05;8.98;;;6.35;;
35114;SDS011;21292;52.416;13.046;2023-05-02T01:33:34;10.18;;;6.22;;
35114;SDS011;21292;52.416;13.046;2023-05-02T01:36:03;9.43;;;6.00;;
35114;SDS011;21292;52.416;13.046;2023-05-02T01:38:33;9.23;;;5.70;;
35114;SDS011;21292;52.416;13.046;2023-05-02T01:41:04;8.57;;;5.70;;
35114;SDS011;21292;52.416;13.046;2023-05-02T01:43:37;10.88;;;6.40;;
35114;SDS011;21292;52.416;13.046;2023-05-02T01:46:08;9.27;;;6.50;;
35114;SDS011;21292;52.416;13.046;2023-05-02T01:48:37;13.00;;;6.30;;
35114;SDS011;21292;52.416;13.046;2023-05-02T01:51:12;7.70;;;5.68;;
35114;SDS011;21292;52.416;13.046;2023-05-02T01:53:45;10.05;;;5.85;;
35114;SDS011;21292;52.416;13.046;2023-05-02T01:56:15;13.38;;;6.13;;
35114;SDS011;21292;52.416;13.046;2023-05-02T01:58:45;7.25;;;6.20;;
35114;SDS011;21292;52.416;13.046;2023-05-02T02:01:15;9.52;;;6.43;;
35114;SDS011;21292;52.416;13.046;2023-05-02T02:03:45;10.82;;;6.47;;
35114;SDS011;21292;52.416;13.046;2023-05-02T02:06:14;13.50;;;6.85;;
35114;SDS011;21292;52.416;13.046;2023-05-02T02:08:43;8.25;;;5.25;;
35114;SDS011;21292;52.416;13.046;2023-05-02T02:11:11;8.00;;;5.38;;
35114;SDS011;21292;52.416;13.046;2023-05-02T02:13:44;10.23;;;5.63;;
35114;SDS011;21292;52.416;13.046;2023-05-02T02:16:23;8.70;;;5.60;;
35114;SDS011;21292;52.416;13.046;2023-05-02T02:18:55;10.18;;;6.55;;
35114;SDS011;21292;52.416;13.046;2023-05-02T02:21:25;9.70;;;6.10;;
35114;SDS011;21292;52.416;13.046;2023-05-02T02:23:56;9.75;;;6.40;;
35114;SDS011;21292;52.416;13.046;2023-05-02T02:26:25;11.40;;;5.45;;
35114;SDS011;21292;52.416;13.046;2023-05-02T02:28:54;18.63;;;5.82;;
35114;SDS011;21292;52.416;13.046;2023-05-02T02:31:24;9.48;;;5.32;;
35114;SDS011;21292;52.416;13.046;2023-05-02T02:33:57;8.25;;;5.35;;
35114;SDS011;21292;52.416;13.046;2023-05-02T02:36:28;7.85;;;5.45;;
35114;SDS011;21292;52.416;13.046;2023-05-02T02:39:02;11.65;;;5.70;;
35114;SDS011;21292;52.416;13.046;2023-05-02T02:41:39;8.18;;;5.53;;
35114;SDS011;21292;52.416;13.046;2023-05-02T02:44:16;10.55;;;5.53;;
35114;SDS011;21292;52.416;13.046;2023-05-02T02:46:55;12.27;;;4.97;;
35114;SDS011;21292;52.416;13.046;2023-05-02T02:49:30;10.52;;;5.05;;
35114;SDS011;21292;52.416;13.046;2023-05-02T02:52:07;8.05;;;4.43;;
35114;SDS011;21292;52.416;13.046;2023-05-02T02:54:38;11.10;;;4.45;;
35114;SDS011;21292;52.416;13.046;2023-05-02T02:57:11;9.77;;;4.10;;
35114;SDS011;21292;52.416;13.046;2023-05-02T02:59:46;6.03;;;4.15;;
35114;SDS011;21292;52.416;13.046;2023-05-02T03:02:21;6.30;;;4.65;;
35114;SDS011;21292;52.416;13.046;2023-05-02T03:04:55;8.55;;;4.15;;
35114;SDS011;21292;52.416;13.046;2023-05-02T03:07:26;8.38;;;4.63;;
35114;SDS011;21292;52.416;13.046;2023-05-02T03:09:54;10.00;;;4.60;;
35114;SDS011;21292;52.416;13.046;2023-05-02T03:12:26;12.57;;;5.10;;
35114;SDS011;21292;52.416;13.046;2023-05-02T03:14:55;8.88;;;4.40;;
35114;SDS011;21292;52.416;13.046;2023-05-02T03:17:33;11.07;;;4.55;;
35114;SDS011;21292;52.416;13.046;2023-05-02T03:20:02;9.18;;;4.78;;
35114;SDS011;21292;52.416;13.046;2023-05-02T03:22:32;8.90;;;4.78;;
35114;SDS011;21292;52.416;13.046;2023-05-02T03:25:00;6.78;;;4.57;;
35114;SDS011;21292;52.416;13.046;2023-05-02T03:27:29;10.48;;;4.57;;
35114;SDS011;21292;52.416;13.046;2023-05-02T03:29:57;7.75;;;4.32;;
35114;SDS011;21292;52.416;13.046;2023-05-02T03:32:26;11.75;;;5.72;;
35114;SDS011;21292;52.416;13.046;2023-05-02T03:34:58;8.63;;;4.15;;
35114;SDS011;21292;52.416;13.046;2023-05-02T03:37:26;9.02;;;4.50;;
35114;SDS011;21292;52.416;13.046;2023-05-02T03:39:55;9.73;;;5.18;;
35114;SDS011;21292;52.416;13.046;2023-05-02T03:42:24;8.68;;;4.13;;
35114;SDS011;21292;52.416;13.046;2023-05-02T03:44:53;5.35;;;3.97;;
35114;SDS011;21292;52.416;13.046;2023-05-02T03:47:22;10.13;;;4.50;;
35114;SDS011;21292;52.416;13.046;2023-05-02T03:49:51;8.73;;;4.15;;
35114;SDS011;21292;52.416;13.046;2023-05-02T03:52:21;8.75;;;4.75;;
35114;SDS011;21292;52.416;13.046;2023-05-02T03:54:49;8.60;;;4.55;;
35114;SDS011;21292;52.416;13.046;2023-05-02T03:57:20;7.05;;;4.45;;
35114;SDS011;21292;52.416;13.046;2023-05-02T03:59:50;7.07;;;4.20;;
35114;SDS011;21292;52.416;13.046;2023-05-02T04:02:20;9.48;;;4.13;;
35114;SDS011;21292;52.416;13.046;2023-05-02T04:04:48;6.20;;;4.25;;
35114;SDS011;21292;52.416;13.046;2023-05-02T04:07:20;10.32;;;4.20;;
35114;SDS011;21292;52.416;13.046;2023-05-02T04:09:51;7.63;;;4.25;;
35114;SDS011;21292;52.416;13.046;2023-05-02T04:12:20;6.80;;;3.63;;
35114;SDS011;21292;52.416;13.046;2023-05-02T04:14:48;7.80;;;3.78;;
35114;SDS011;21292;52.416;13.046;2023-05-02T04:17:16;9.18;;;4.07;;
35114;SDS011;21292;52.416;13.046;2023-05-02T04:19:45;7.75;;;3.83;;
35114;SDS011;21292;52.416;13.046;2023-05-02T04:22:13;7.00;;;4.03;;
35114;SDS011;21292;52.416;13.046;2023-05-02T04:24:43;10.35;;;4.00;;
35114;SDS011;21292;52.416;13.046;2023-05-02T04:27:13;9.73;;;4.30;;
35114;SDS011;21292;52.416;13.046;2023-05-02T04:29:41;6.22;;;3.90;;
35114;SDS011;21292;52.416;13.046;2023-05-02T04:32:10;7.80;;;3.50;;
35114;SDS011;21292;52.416;13.046;2023-05-02T04:34:38;6.88;;;4.00;;
35114;SDS011;21292;52.416;13.046;2023-05-02T04:37:06;6.22;;;3.60;;
35114;SDS011;21292;52.416;13.046;2023-05-02T04:39:35;9.10;;;3.45;;
35114;SDS011;21292;52.416;13.046;2023-05-02T04:42:05;9.23;;;3.40;;
35114;SDS011;21292;52.416;13.046;2023-05-02T04:44:33;8.00;;;3.45;;
35114;SDS011;21292;52.416;13.046;2023-05-02T04:47:01;9.50;;;3.50;;
35114;SDS011;21292;52.416;13.046;2023-05-02T04:49:30;8.20;;;4.07;;
35114;SDS011;21292;52.416;13.046;2023-05-02T04:51:58;7.30;;;4.07;;
35114;SDS011;21292;52.416;13.046;2023-05-02T04:54:27;7.07;;;3.90;;
35114;SDS011;21292;52.416;13.046;2023-05-02T04:56:55;7.80;;;3.97;;
35114;SDS011;21292;52.416;13.046;2023-05-02T04:59:26;12.07;;;4.38;;
35114;SDS011;21292;52.416;13.046;2023-05-02T05:01:54;8.20;;;4.53;;
35114;SDS011;21292;52.416;13.046;2023-05-02T05:04:23;6.15;;;4.20;;
35114;SDS011;21292;52.416;13.046;2023-05-02T05:06:51;7.03;;;4.20;;
35114;SDS011;21292;52.416;13.046;2023-05-02T05:09:20;11.00;;;4.72;;
35114;SDS011;21292;52.416;13.046;2023-05-02T05:11:49;10.32;;;4.00;;
35114;SDS011;21292;52.416;13.046;2023-05-02T05:14:17;6.25;;;3.63;;
35114;SDS011;21292;52.416;13.046;2023-05-02T05:16:46;8.90;;;4.20;;
35114;SDS011;21292;52.416;13.046;2023-05-02T05:19:14;8.98;;;3.70;;
35114;SDS011;21292;52.416;13.046;2023-05-02T05:21:43;7.50;;;3.67;;
35114;SDS011;21292;52.416;13.046;2023-05-02T05:24:11;8.38;;;3.85;;
35114;SDS011;21292;52.416;13.046;2023-05-02T05:26:39;10.82;;;3.88;;
35114;SDS011;21292;52.416;13.046;2023-05-02T05:29:07;9.00;;;4.40;;
35114;SDS011;21292;52.416;13.046;2023-05-02T05:31:35;6.82;;;4.03;;
35114;SDS011;21292;52.416;13.046;2023-05-02T05:34:09;6.47;;;4.50;;
35114;SDS011;21292;52.416;13.046;2023-05-02T05:36:38;9.77;;;5.03;;
35114;SDS011;21292;52.416;13.046;2023-05-02T05:39:07;12.27;;;5.45;;
35114;SDS011;21292;52.416;13.046;2023-05-02T05:41:35;10.80;;;4.88;;
35114;SDS011;21292;52.416;13.046;2023-05-02T05:44:04;11.02;;;5.53;;
35114;SDS011;21292;52.416;13.046;2023-05-02T05:46:34;10.27;;;4.45;;
35114;SDS011;21292;52.416;13.046;2023-05-02T05:49:03;8.65;;;5.55;;
35114;SDS011;21292;52.416;13.046;2023-05-02T05:51:33;8.82;;;5.20;;
35114;SDS011;21292;52.416;13.046;2023-05-02T05:56:33;11.38;;;5.43;;
35114;SDS011;21292;52.416;13.046;2023-05-02T05:59:01;11.27;;;5.63;;
35114;SDS011;21292;52.416;13.046;2023-05-02T06:01:29;11.50;;;6.60;;
35114;SDS011;21292;52.416;13.046;2023-05-02T06:03:58;13.82;;;7.20;;
35114;SDS011;21292;52.416;13.046;2023-05-02T06:06:28;14.48;;;7.05;;
35114;SDS011;21292;52.416;13.046;2023-05-02T06:08:59;13.30;;;7.03;;
35114;SDS011;21292;52.416;13.046;2023-05-02T06:11:28;11.23;;;6.88;;
35114;SDS011;21292;52.416;13.046;2023-05-02T06:13:57;12.48;;;6.93;;
35114;SDS011;21292;52.416;13.046;2023-05-02T06:16:26;12.05;;;6.68;;
35114;SDS011;21292;52.416;13.046;2023-05-02T06:18:54;11.73;;;7.10;;
35114;SDS011;21292;52.416;13.046;2023-05-02T06:21:22;12.02;;;7.50;;
35114;SDS011;21292;52.416;13.046;2023-05-02T06:23:53;12.02;;;7.60;;
35114;SDS011;21292;52.416;13.046;2023-05-02T06:26:23;13.50;;;8.20;;
35114;SDS011;21292;52.416;13.046;2023-05-02T06:28:53;12.32;;;8.10;;
35114;SDS011;21292;52.416;13.046;2023-05-02T06:31:21;17.27;;;9.25;;
35114;SDS011;21292;52.416;13.046;2023-05-02T06:33:52;18.67;;;8.27;;
35114;SDS011;21292;52.416;13.046;2023-05-02T06:36:20;15.50;;;9.77;;
35114;SDS011;21292;52.416;13.046;2023-05-02T06:38:48;19.08;;;10.35;;
35114;SDS011;21292;52.416;13.046;2023-05-02T06:41:19;19.42;;;10.38;;
35114;SDS011;21292;52.416;13.046;2023-05-02T06:43:54;21.00;;;9.88;;
35114;SDS011;21292;52.416;13.046;2023-05-02T06:46:23;15.63;;;10.77;;
35114;SDS011;21292;52.416;13.046;2023-05-02T06:48:55;19.73;;;10.68;;
35114;SDS011;21292;52.416;13.046;2023-05-02T06:51:23;18.52;;;10.13;;
35114;SDS011;21292;52.416;13.046;2023-05-02T06:53:53;20.85;;;11.13;;
35114;SDS011;21292;52.416;13.046;2023-05-02T06:56:21;18.98;;;10.48;;
35114;SDS011;21292;52.416;13.046;2023-05-02T06:58:52;17.50;;;10.70;;
35114;SDS011;21292;52.416;13.046;2023-05-02T07:01:23;14.05;;;9.60;;
35114;SDS011;21292;52.416;13.046;2023-05-02T07:03:52;16.65;;;10.20;;
35114;SDS011;21292;52.416;13.046;2023-05-02T07:06:21;15.43;;;9.45;;
35114;SDS011;21292;52.416;13.046;2023-05-02T07:08:52;19.15;;;10.00;;
35114;SDS011;21292;52.416;13.046;2023-05-02T07:11:27;16.63;;;10.07;;
35114;SDS011;21292;52.416;13.046;2023-05-02T07:13:58;16.08;;;8.75;;
35114;SDS011;21292;52.416;13.046;2023-05-02T07:16:27;15.32;;;8.63;;
35114;SDS011;21292;52.416;13.046;2023-05-02T07:18:55;16.10;;;9.20;;
35114;SDS011;21292;52.416;13.046;2023-05-02T07:21:28;14.80;;;9.45;;
35114;SDS011;21292;52.416;13.046;2023-05-02T07:23:58;13.57;;;9.60;;
35114;SDS011;21292;52.416;13.046;2023-05-02T07:26:29;15.33;;;9.63;;
35114;SDS011;21292;52.416;13.046;2023-05-02T07:29:01;20.48;;;10.32;;
35114;SDS011;21292;52.416;13.046;2023-05-02T07:31:51;16.15;;;10.35;;
35114;SDS011;21292;52.416;13.046;2023-05-02T07:34:21;15.13;;;9.40;;
35114;SDS011;21292;52.416;13.046;2023-05-02T07:36:54;15.50;;;8.93;;
35114;SDS011;21292;52.416;13.046;2023-05-02T07:39:35;12.95;;;9.15;;
35114;SDS011;21292;52.416;13.046;2023-05-02T07:42:04;17.77;;;8.40;;
35114;SDS011;21292;52.416;13.046;2023-05-02T07:44:35;16.65;;;8.70;;
35114;SDS011;21292;52.416;13.046;2023-05-02T07:47:04;11.95;;;7.97;;
35114;SDS011;21292;52.416;13.046;2023-05-02T07:49:41;12.18;;;7.80;;
35114;SDS011;21292;52.416;13.046;2023-05-02T07:52:27;13.20;;;7.20;;
35114;SDS011;21292;52.416;13.046;2023-05-02T07:54:56;11.40;;;6.90;;
35114;SDS011;21292;52.416;13.046;2023-05-02T07:57:24;10.32;;;6.22;;
35114;SDS011;21292;52.416;13.046;2023-05-02T07:59:58;11.38;;;6.47;;
35114;SDS011;21292;52.416;13.046;2023-05-02T08:02:30;9.95;;;5.78;;
35114;SDS011;21292;52.416;13.046;2023-05-02T08:04:59;9.35;;;5.28;;
35114;SDS011;21292;52.416;13.046;2023-05-02T08:07:28;7.38;;;5.13;;
35114;SDS011;21292;52.416;13.046;2023-05-02T08:09:56;8.23;;;5.88;;
35114;SDS011;21292;52.416;13.046;2023-05-02T08:12:25;8.05;;;5.40;;
35114;SDS011;21292;52.416;13.046;2023-05-02T08:14:56;9.50;;;5.95;;
35114;SDS011;21292;52.416;13.046;2023-05-02T08:17:26;11.88;;;6.65;;
35114;SDS011;21292;52.416;13.046;2023-05-02T08:19:55;9.82;;;6.45;;
35114;SDS011;21292;52.416;13.046;2023-05-02T08:22:23;7.28;;;5.50;;
35114;SDS011;21292;52.416;13.046;2023-05-02T08:24:52;11.20;;;6.72;;
35114;SDS011;21292;52.416;13.046;2023-05-02T08:27:20;8.05;;;6.15;;
35114;SDS011;21292;52.416;13.046;2023-05-02T08:29:49;8.80;;;5.75;;
35114;SDS011;21292;52.416;13.046;2023-05-02T08:32:35;12.68;;;6.30;;
35114;SDS011;21292;52.416;13.046;2023-05-02T08:35:40;9.30;;;6.25;;
35114;SDS011;21292;52.416;13.046;2023-05-02T08:38:25;11.88;;;5.95;;
35114;SDS011;21292;52.416;13.046;2023-05-02T08:41:10;10.40;;;5.68;;
35114;SDS011;21292;52.416;13.046;2023-05-02T08:43:48;9.23;;;5.75;;
35114;SDS011;21292;52.416;13.046;2023-05-02T08:46:20;8.57;;;5.95;;
35114;SDS011;21292;52.416;13.046;2023-05-02T08:49:23;9.63;;;6.28;;
35114;SDS011;21292;52.416;13.046;2023-05-02T08:52:08;12.32;;;6.88;;
35114;SDS011;21292;52.416;13.046;2023-05-02T08:54:52;13.50;;;7.63;;
35114;SDS011;21292;52.416;13.046;2023-05-02T08:57:31;9.00;;;5.97;;
35114;SDS011;21292;52.416;13.046;2023-05-02T09:00:03;9.13;;;5.93;;
35114;SDS011;21292;52.416;13.046;2023-05-02T09:02:50;7.93;;;5.88;;
35114;SDS011;21292;52.416;13.046;2023-05-02T09:05:37;10.55;;;6.40;;
35114;SDS011;21292;52.416;13.046;2023-05-02T09:08:31;8.52;;;6.13;;
35114;SDS011;21292;52.416;13.046;2023-05-02T09:11:17;11.23;;;6.63;;
35114;SDS011;21292;52.416;13.046;2023-05-02T09:13:50;8.32;;;6.18;;
35114;SDS011;21292;52.416;13.046;2023-05-02T09:16:30;10.57;;;6.22;;
35114;SDS011;21292;52.416;13.046;2023-05-02T09:19:22;10.73;;;6.85;;
35114;SDS011;21292;52.416;13.046;2023-05-02T09:22:00;9.43;;;6.78;;
35114;SDS011;21292;52.416;13.046;2023-05-02T09:24:30;13.45;;;6.00;;
35114;SDS011;21292;52.416;13.046;2023-05-02T09:27:02;9.10;;;5.20;;
35114;SDS011;21292;52.416;13.046;2023-05-02T09:29:39;7.82;;;5.22;;
35114;SDS011;21292;52.416;13.046;2023-05-02T09:32:12;6.68;;;5.07;;
35114;SDS011;21292;52.416;13.046;2023-05-02T09:35:04;6.20;;;4.78;;
35114;SDS011;21292;52.416;13.046;2023-05-02T09:37:37;7.35;;;4.55;;
35114;SDS011;21292;52.416;13.046;2023-05-02T09:40:08;8.55;;;4.30;;
35114;SDS011;21292;52.416;13.046;2023-05-02T09:42:38;7.43;;;5.00;;
35114;SDS011;21292;52.416;13.046;2023-05-02T09:45:07;6.53;;;4.38;;
35114;SDS011;21292;52.416;13.046;2023-05-02T09:47:36;8.15;;;4.85;;
35114;SDS011;21292;52.416;13.046;2023-05-02T09:50:05;5.90;;;3.88;;
35114;SDS011;21292;52.416;13.046;2023-05-02T09:52:35;7.55;;;4.93;;
35114;SDS011;21292;52.416;13.046;2023-05-02T09:55:19;8.30;;;5.03;;
35114;SDS011;21292;52.416;13.046;2023-05-02T09:57:56;8.43;;;5.55;;
35114;SDS011;21292;52.416;13.046;2023-05-02T10:00:37;9.50;;;5.75;;
35114;SDS011;21292;52.416;13.046;2023-05-02T10:03:30;9.57;;;6.38;;
35114;SDS011;21292;52.416;13.046;2023-05-02T10:06:09;7.88;;;5.65;;
35114;SDS011;21292;52.416;13.046;2023-05-02T10:08:41;8.43;;;3.85;;
35114;SDS011;21292;52.416;13.046;2023-05-02T10:11:15;7.05;;;3.60;;
35114;SDS011;21292;52.416;13.046;2023-05-02T10:13:43;3.85;;;2.90;;
35114;SDS011;21292;52.416;13.046;2023-05-02T10:16:26;7.32;;;3.00;;
35114;SDS011;21292;52.416;13.046;2023-05-02T10:18:57;5.10;;;2.83;;
35114;SDS011;21292;52.416;13.046;2023-05-02T10:21:31;4.18;;;2.72;;
35114;SDS011;21292;52.416;13.046;2023-05-02T10:24:00;6.85;;;3.17;;
35114;SDS011;21292;52.416;13.046;2023-05-02T10:26:30;7.13;;;3.50;;
35114;SDS011;21292;52.416;13.046;2023-05-02T10:28:58;6.28;;;3.72;;
35114;SDS011;21292;52.416;13.046;2023-05-02T10:31:29;8.82;;;4.22;;
35114;SDS011;21292;52.416;13.046;2023-05-02T10:34:04;5.22;;;3.75;;
35114;SDS011;21292;52.416;13.046;2023-05-02T10:36:36;9.48;;;4.38;;
35114;SDS011;21292;52.416;13.046;2023-05-02T10:39:06;9.05;;;4.30;;
35114;SDS011;21292;52.416;13.046;2023-05-02T10:41:35;8.38;;;4.55;;
35114;SDS011;21292;52.416;13.046;2023-05-02T10:44:05;10.10;;;5.22;;
35114;SDS011;21292;52.416;13.046;2023-05-02T10:46:35;8.05;;;4.63;;
35114;SDS011;21292;52.416;13.046;2023-05-02T10:49:06;11.45;;;5.30;;
35114;SDS011;21292;52.416;13.046;2023-05-02T10:51:36;11.23;;;5.68;;
35114;SDS011;21292;52.416;13.046;2023-05-02T10:54:18;18.40;;;5.82;;
35114;SDS011;21292;52.416;13.046;2023-05-02T10:57:01;12.40;;;5.68;;
35114;SDS011;21292;52.416;13.046;2023-05-02T10:59:35;18.02;;;5.45;;
35114;SDS011;21292;52.416;13.046;2023-05-02T11:02:04;16.77;;;5.13;;
35114;SDS011;21292;52.416;13.046;2023-05-02T11:07:29;21.95;;;5.47;;
35114;SDS011;21292;52.416;13.046;2023-05-02T11:12:54;17.98;;;5.72;;
35114;SDS011;21292;52.416;13.046;2023-05-02T11:18:23;17.20;;;6.13;;
35114;SDS011;21292;52.416;13.046;2023-05-02T11:20:52;13.20;;;5.40;;
35114;SDS011;21292;52.416;13.046;2023-05-02T11:30:01;15.38;;;5.72;;
35114;SDS011;21292;52.416;13.046;2023-05-02T11:35:29;15.48;;;4.65;;
35114;SDS011;21292;52.416;13.046;2023-05-02T11:37:58;15.95;;;5.30;;
35114;SDS011;21292;52.416;13.046;2023-05-02T11:40:29;13.95;;;5.07;;
35114;SDS011;21292;52.416;13.046;2023-05-02T11:42:58;14.73;;;5.93;;
35114;SDS011;21292;52.416;13.046;2023-05-02T11:45:33;13.43;;;5.60;;
35114;SDS011;21292;52.416;13.046;2023-05-02T11:48:03;16.17;;;5.05;;
35114;SDS011;21292;52.416;13.046;2023-05-02T11:50:33;19.90;;;6.22;;
35114;SDS011;21292;52.416;13.046;2023-05-02T11:53:03;11.43;;;5.22;;
35114;SDS011;21292;52.416;13.046;2023-05-02T11:55:43;13.30;;;5.03;;
35114;SDS011;21292;52.416;13.046;2023-05-02T11:58:13;14.80;;;6.45;;
35114;SDS011;21292;52.416;13.046;2023-05-02T12:00:45;15.23;;;4.63;;
35114;SDS011;21292;52.416;13.046;2023-05-02T12:03:18;15.30;;;4.47;;
35114;SDS011;21292;52.416;13.046;2023-05-02T12:05:48;14.52;;;5.50;;
35114;SDS011;21292;52.416;13.046;2023-05-02T12:08:17;15.02;;;4.95;;
35114;SDS011;21292;52.416;13.046;2023-05-02T12:10:47;13.90;;;3.88;;
35114;SDS011;21292;52.416;13.046;2023-05-02T12:13:16;12.23;;;4.07;;
35114;SDS011;21292;52.416;13.046;2023-05-02T12:15:47;10.95;;;4.30;;
35114;SDS011;21292;52.416;13.046;2023-05-02T12:18:16;12.05;;;4.55;;
35114;SDS011;21292;52.416;13.046;2023-05-02T12:20:47;11.37;;;3.60;;
35114;SDS011;21292;52.416;13.046;2023-05-02T12:23:18;12.77;;;3.85;;
35114;SDS011;21292;52.416;13.046;2023-05-02T12:25:47;12.77;;;4.22;;
35114;SDS011;21292;52.416;13.046;2023-05-02T12:28:16;11.40;;;3.75;;
35114;SDS011;21292;52.416;13.046;2023-05-02T12:30:47;14.02;;;3.90;;
35114;SDS011;21292;52.416;13.046;2023-05-02T12:33:17;12.40;;;3.83;;
35114;SDS011;21292;52.416;13.046;2023-05-02T12:35:47;11.38;;;3.35;;
35114;SDS011;21292;52.416;13.046;2023-05-02T12:38:22;17.50;;;4.72;;
35114;SDS011;21292;52.416;13.046;2023-05-02T12:40:52;14.32;;;3.55;;
35114;SDS011;21292;52.416;13.046;2023-05-02T12:43:23;14.60;;;4.22;;
35114;SDS011;21292;52.416;13.046;2023-05-02T12:46:09;13.85;;;4.57;;
35114;SDS011;21292;52.416;13.046;2023-05-02T12:48:37;15.15;;;3.88;;
35114;SDS011;21292;52.416;13.046;2023-05-02T12:51:12;20.33;;;4.57;;
35114;SDS011;21292;52.416;13.046;2023-05-02T12:53:48;16.00;;;3.90;;
35114;SDS011;21292;52.416;13.046;2023-05-02T12:56:16;12.63;;;4.30;;
35114;SDS011;21292;52.416;13.046;2023-05-02T12:58:46;15.15;;;4.35;;
35114;SDS011;21292;52.416;13.046;2023-05-02T13:01:16;11.18;;;3.78;;
35114;SDS011;21292;52.416;13.046;2023-05-02T13:03:44;12.13;;;3.50;;
35114;SDS011;21292;52.416;13.046;2023-05-02T13:06:14;11.63;;;3.80;;
35114;SDS011;21292;52.416;13.046;2023-05-02T13:08:43;16.13;;;4.53;;
35114;SDS011;21292;52.416;13.046;2023-05-02T13:11:11;10.15;;;3.67;;
35114;SDS011;21292;52.416;13.046;2023-05-02T13:13:41;12.50;;;3.80;;
35114;SDS011;21292;52.416;13.046;2023-05-02T13:16:10;17.52;;;4.60;;
35114;SDS011;21292;52.416;13.046;2023-05-02T13:18:40;13.00;;;4.45;;
35114;SDS011;21292;52.416;13.046;2023-05-02T13:21:11;16.98;;;5.32;;
35114;SDS011;21292;52.416;13.046;2023-05-02T13:23:47;18.90;;;5.05;;
35114;SDS011;21292;52.416;13.046;2023-05-02T13:26:24;12.85;;;4.57;;
35114;SDS011;21292;52.416;13.046;2023-05-02T13:28:55;11.20;;;4.45;;
35114;SDS011;21292;52.416;13.046;2023-05-02T13:31:24;13.80;;;6.75;;
35114;SDS011;21292;52.416;13.046;2023-05-02T13:33:54;12.30;;;4.40;;
35114;SDS011;21292;52.416;13.046;2023-05-02T13:36:25;14.60;;;5.38;;
35114;SDS011;21292;52.416;13.046;2023-05-02T13:38:53;16.25;;;4.57;;
35114;SDS011;21292;52.416;13.046;2023-05-02T13:41:25;13.10;;;4.70;;
35114;SDS011;21292;52.416;13.046;2023-05-02T13:44:01;11.65;;;4.97;;
35114;SDS011;21292;52.416;13.046;2023-05-02T13:46:30;13.65;;;5.13;;
35114;SDS011;21292;52.416;13.046;2023-05-02T13:49:04;12.00;;;4.75;;
35114;SDS011;21292;52.416;13.046;2023-05-02T13:51:33;17.77;;;5.25;;
35114;SDS011;21292;52.416;13.046;2023-05-02T13:54:02;18.52;;;5.30;;
35114;SDS011;21292;52.416;13.046;2023-05-02T13:56:30;12.10;;;4.82;;
35114;SDS011;21292;52.416;13.046;2023-05-02T13:58:58;16.48;;;5.20;;
35114;SDS011;21292;52.416;13.046;2023-05-02T14:01:27;11.30;;;4.60;;
35114;SDS011;21292;52.416;13.046;2023-05-02T14:04:01;17.73;;;4.97;;
35114;SDS011;21292;52.416;13.046;2023-05-02T14:06:36;16.30;;;5.28;;
35114;SDS011;21292;52.416;13.046;2023-05-02T14:09:05;12.95;;;4.93;;
35114;SDS011;21292;52.416;13.046;2023-05-02T14:11:35;15.45;;;4.72;;
35114;SDS011;21292;52.416;13.046;2023-05-02T14:14:04;12.30;;;4.93;;
35114;SDS011;21292;52.416;13.046;2023-05-02T14:16:32;10.57;;;5.03;;
35114;SDS011;21292;52.416;13.046;2023-05-02T14:19:01;15.88;;;4.75;;
35114;SDS011;21292;52.416;13.046;2023-05-02T14:21:30;9.55;;;4.97;;
35114;SDS011;21292;52.416;13.046;2023-05-02T14:24:07;17.58;;;6.18;;
35114;SDS011;21292;52.416;13.046;2023-05-02T14:26:43;18.10;;;5.03;;
35114;SDS011;21292;52.416;13.046;2023-05-02T14:29:16;11.95;;;4.88;;
35114;SDS011;21292;52.416;13.046;2023-05-02T14:31:45;12.88;;;5.35;;
35114;SDS011;21292;52.416;13.046;2023-05-02T14:34:18;15.38;;;5.35;;
35114;SDS011;21292;52.416;13.046;2023-05-02T14:36:47;15.13;;;5.68;;
35114;SDS011;21292;52.416;13.046;2023-05-02T14:39:17;14.00;;;5.82;;
35114;SDS011;21292;52.416;13.046;2023-05-02T14:41:46;15.38;;;5.85;;
35114;SDS011;21292;52.416;13.046;2023-05-02T14:44:15;12.95;;;5.47;;
35114;SDS011;21292;52.416;13.046;2023-05-02T14:46:44;16.52;;;5.88;;
35114;SDS011;21292;52.416;13.046;2023-05-02T14:49:13;14.50;;;4.90;;
35114;SDS011;21292;52.416;13.046;2023-05-02T14:51:42;11.43;;;5.40;;
35114;SDS011;21292;52.416;13.046;2023-05-02T14:54:19;9.65;;;4.93;;
35114;SDS011;21292;52.416;13.046;2023-05-02T14:56:48;12.40;;;5.63;;
35114;SDS011;21292;52.416;13.046;2023-05-02T14:59:19;22.80;;;6.55;;
35114;SDS011;21292;52.416;13.046;2023-05-02T15:01:49;11.18;;;5.60;;
35114;SDS011;21292;52.416;13.046;2023-05-02T15:04:18;20.27;;;5.57;;
35114;SDS011;21292;52.416;13.046;2023-05-02T15:06:49;10.80;;;5.00;;
35114;SDS011;21292;52.416;13.046;2023-05-02T15:09:22;10.02;;;4.88;;
35114;SDS011;21292;52.416;13.046;2023-05-02T15:11:52;8.27;;;4.82;;